createdAt,value
2023-11-10T00:00:14.492Z,22.63
2023-11-10T00:02:48.984Z,22.62
2023-11-10T00:05:22.596Z,22.61
2023-11-10T00:07:53.969Z,22.55
2023-11-10T00:10:31.096Z,22.60
2023-11-10T00:13:01.714Z,22.61
2023-11-10T00:15:35.089Z,22.59
2023-11-10T00:18:07.450Z,22.58
2023-11-10T00:20:47.720Z,22.58
2023-11-10T00:23:20.826Z,22.57
2023-11-10T00:25:51.998Z,22.57
2023-11-10T00:28:23.746Z,22.55
2023-11-10T00:30:55.136Z,22.56
2023-11-10T00:33:29.035Z,22.52
2023-11-10T00:35:59.708Z,22.55
2023-11-10T00:38:33.866Z,22.43
2023-11-10T00:41:08.874Z,22.43
2023-11-10T00:43:45.155Z,22.54
2023-11-10T00:46:16.982Z,22.53
2023-11-10T00:48:51.100Z,22.51
2023-11-10T00:51:24.426Z,22.51
2023-11-10T00:53:55.260Z,22.50
2023-11-10T00:56:28.443Z,22.49
2023-11-10T00:59:02.468Z,22.49
2023-11-10T01:01:35.112Z,22.50
2023-11-10T01:04:10.168Z,22.49
2023-11-10T01:06:42.453Z,22.49
2023-11-10T01:09:14.243Z,22.48
2023-11-10T01:11:46.906Z,22.48
2023-11-10T01:14:17.998Z,22.47
2023-11-10T01:16:52.241Z,22.44
2023-11-10T01:19:26.725Z,22.45
2023-11-10T01:22:00.052Z,22.44
2023-11-10T01:24:34.094Z,22.43
2023-11-10T01:27:07.786Z,22.45
2023-11-10T01:29:38.281Z,22.43
2023-11-10T01:32:11.214Z,22.42
2023-11-10T01:34:42.975Z,22.41
2023-11-10T01:37:16.777Z,22.41
2023-11-10T01:39:47.220Z,22.41
2023-11-10T01:42:22.219Z,22.40
2023-11-10T01:44:53.760Z,22.39
2023-11-10T01:47:24.365Z,22.38
2023-11-10T01:49:55.465Z,22.38
2023-11-10T01:52:29.992Z,22.38
2023-11-10T01:55:01.440Z,22.38
2023-11-10T01:57:32.014Z,22.36
2023-11-10T02:00:04.391Z,22.37
2023-11-10T02:02:38.839Z,22.34
2023-11-10T02:05:30.976Z,22.35
2023-11-10T02:08:04.405Z,22.25
2023-11-10T02:10:36.972Z,22.35
2023-11-10T02:13:11.500Z,22.33
2023-11-10T02:15:43.098Z,22.34
2023-11-10T02:18:15.432Z,22.32
2023-11-10T02:20:47.026Z,22.33
2023-11-10T02:23:20.472Z,22.32
2023-11-10T02:25:54.650Z,22.32
2023-11-10T02:28:25.408Z,22.30
2023-11-10T02:31:17.535Z,22.30
2023-11-10T02:33:48.387Z,22.31
2023-11-10T02:36:19.312Z,22.29
2023-11-10T02:38:50.651Z,22.30
2023-11-10T02:41:22.901Z,22.29
2023-11-10T02:43:57.738Z,22.30
2023-11-10T02:46:28.672Z,22.28
2023-11-10T02:49:03.216Z,22.28
2023-11-10T02:51:34.109Z,22.26
2023-11-10T02:54:06.019Z,22.26
2023-11-10T02:59:35.496Z,22.24
2023-11-10T03:02:09.721Z,22.24
2023-11-10T03:04:45.241Z,22.22
2023-11-10T03:07:16.977Z,22.24
2023-11-10T03:09:47.561Z,22.23
2023-11-10T03:12:23.190Z,22.21
2023-11-10T03:14:54.022Z,22.21
2023-11-10T03:17:27.918Z,22.20
2023-11-10T03:19:58.678Z,22.22
2023-11-10T03:22:31.168Z,22.21
2023-11-10T03:25:01.520Z,22.21
2023-11-10T03:27:33.995Z,22.20
2023-11-10T03:30:04.617Z,22.17
2023-11-10T03:32:36.349Z,22.18
2023-11-10T03:35:07.917Z,22.16
2023-11-10T03:37:38.253Z,22.16
2023-11-10T03:40:11.500Z,22.16
2023-11-10T03:42:44.211Z,22.16
2023-11-10T03:45:16.846Z,22.15
2023-11-10T03:47:49.554Z,22.16
2023-11-10T03:50:22.225Z,22.14
2023-11-10T03:52:54.964Z,22.02
2023-11-10T03:55:27.043Z,22.02
2023-11-10T03:58:00.144Z,22.12
2023-11-10T04:00:39.103Z,22.13
2023-11-10T04:03:02.596Z,22.12
2023-11-10T04:05:33.639Z,22.10
2023-11-10T04:08:08.409Z,22.10
2023-11-10T04:10:43.626Z,22.10
2023-11-10T04:13:15.794Z,22.10
2023-11-10T04:15:49.391Z,22.09
2023-11-10T04:18:23.178Z,22.09
2023-11-10T04:20:53.995Z,22.08
2023-11-10T04:23:24.627Z,22.07
2023-11-10T04:25:54.988Z,22.08
2023-11-10T04:28:26.564Z,22.06
2023-11-10T04:31:01.471Z,22.07
2023-11-10T04:33:32.530Z,22.07
2023-11-10T04:36:03.264Z,22.06
2023-11-10T04:38:34.535Z,22.04
2023-11-10T04:41:05.320Z,22.05
2023-11-10T04:43:35.719Z,22.03
2023-11-10T04:46:29.539Z,22.03
2023-11-10T04:48:59.773Z,22.04
2023-11-10T04:51:33.669Z,22.03
2023-11-10T04:54:05.581Z,22.02
2023-11-10T04:56:36.299Z,22.02
2023-11-10T04:59:06.959Z,22.01
2023-11-10T05:01:41.042Z,22.00
2023-11-10T05:04:12.740Z,21.99
2023-11-10T05:06:43.727Z,22.00
2023-11-10T05:09:14.709Z,22.00
2023-11-10T05:11:45.461Z,21.99
2023-11-10T05:14:16.596Z,21.97
2023-11-10T05:16:47.241Z,21.97
2023-11-10T05:19:17.640Z,21.97
2023-11-10T05:21:48.144Z,21.97
2023-11-10T05:24:19.335Z,21.96
2023-11-10T05:26:50.794Z,21.96
2023-11-10T05:29:22.235Z,21.94
2023-11-10T05:32:13.592Z,21.94
2023-11-10T05:34:44.333Z,21.95
2023-11-10T05:37:16.473Z,21.93
2023-11-10T05:39:49.921Z,21.92
2023-11-10T05:42:22.532Z,21.78
2023-11-10T05:44:54.324Z,21.78
2023-11-10T05:47:27.754Z,21.89
2023-11-10T05:49:58.953Z,21.89
2023-11-10T05:52:30.954Z,21.88
2023-11-10T05:55:01.831Z,21.88
2023-11-10T05:57:32.113Z,21.86
2023-11-10T06:00:03.265Z,21.89
2023-11-10T06:02:33.306Z,21.87
2023-11-10T06:05:08.621Z,21.86
2023-11-10T06:07:40.687Z,21.85
2023-11-10T06:10:13.366Z,21.85
2023-11-10T06:12:44.286Z,21.84
2023-11-10T06:15:14.887Z,21.83
2023-11-10T06:17:46.206Z,21.84
2023-11-10T06:20:16.892Z,21.83
2023-11-10T06:22:47.568Z,21.82
2023-11-10T06:25:18.112Z,21.80
2023-11-10T06:27:49.082Z,21.80
2023-11-10T06:30:20.354Z,21.81
2023-11-10T06:32:50.528Z,21.79
2023-11-10T06:35:21.163Z,21.79
2023-11-10T06:37:51.747Z,21.78
2023-11-10T06:40:22.427Z,21.78
2023-11-10T06:42:52.811Z,21.78
2023-11-10T06:45:23.226Z,21.78
2023-11-10T06:47:54.672Z,21.76
2023-11-10T06:50:26.002Z,21.76
2023-11-10T06:52:58.766Z,21.75
2023-11-10T06:55:30.762Z,21.76
2023-11-10T06:58:21.292Z,21.75
2023-11-10T07:00:53.257Z,21.74
2023-11-10T07:03:24.624Z,21.73
2023-11-10T07:05:56.235Z,21.73
2023-11-10T07:08:27.444Z,21.71
2023-11-10T07:10:59.584Z,21.71
2023-11-10T07:13:29.755Z,21.69
2023-11-10T07:16:00.730Z,21.70
2023-11-10T07:18:33.725Z,21.69
2023-11-10T07:21:04.988Z,21.68
2023-11-10T07:23:35.724Z,21.67
2023-11-10T07:26:07.318Z,21.67
2023-11-10T07:28:38.509Z,21.66
2023-11-10T07:31:09.370Z,21.65
2023-11-10T07:33:39.949Z,21.64
2023-11-10T07:36:12.043Z,21.64
2023-11-10T07:38:42.545Z,21.64
2023-11-10T07:41:13.557Z,21.63
2023-11-10T07:43:44.156Z,21.62
2023-11-10T07:46:15.122Z,21.62
2023-11-10T07:48:45.559Z,21.61
2023-11-10T07:51:16.299Z,21.60
2023-11-10T07:53:47.025Z,21.60
2023-11-10T07:56:18.998Z,21.59
2023-11-10T07:58:49.529Z,21.58
2023-11-10T08:01:21.125Z,21.59
2023-11-10T08:03:51.762Z,21.58
2023-11-10T08:06:22.372Z,21.57
2023-11-10T08:09:14.219Z,21.57
2023-11-10T08:11:52.677Z,21.56
2023-11-10T08:14:17.861Z,21.56
2023-11-10T08:16:50.280Z,21.56
2023-11-10T08:19:20.548Z,21.54
2023-11-10T08:21:52.261Z,21.53
2023-11-10T08:24:23.132Z,21.53
2023-11-10T08:26:54.173Z,21.52
2023-11-10T08:29:24.814Z,21.51
2023-11-10T08:31:55.862Z,21.51
2023-11-10T08:34:27.113Z,21.51
2023-11-10T08:36:58.368Z,21.50
2023-11-10T08:39:29.025Z,21.49
2023-11-10T08:42:00.534Z,21.48
2023-11-10T08:44:31.102Z,21.44
2023-11-10T08:47:01.989Z,21.47
2023-11-10T08:49:32.416Z,21.46
2023-11-10T08:52:02.859Z,21.45
2023-11-10T08:54:34.668Z,21.44
2023-11-10T08:57:05.793Z,21.45
2023-11-10T08:59:36.663Z,21.44
2023-11-10T09:02:08.344Z,21.43
2023-11-10T09:04:39.021Z,21.42
2023-11-10T09:07:09.316Z,21.43
2023-11-10T09:09:39.357Z,21.42
2023-11-10T09:12:10.576Z,21.42
2023-11-10T09:14:41.403Z,21.41
2023-11-10T09:17:12.626Z,21.41
2023-11-10T09:19:42.975Z,21.39
2023-11-10T09:22:19.868Z,21.39
2023-11-10T09:24:50.475Z,21.38
2023-11-10T09:27:20.872Z,21.38
2023-11-10T09:29:52.405Z,21.37
2023-11-10T09:32:25.678Z,21.36
2023-11-10T09:34:56.635Z,21.34
2023-11-10T09:37:28.140Z,21.34
2023-11-10T09:40:00.249Z,21.31
2023-11-10T09:42:30.603Z,21.34
2023-11-10T09:45:01.322Z,21.33
2023-11-10T09:47:32.281Z,21.31
2023-11-10T09:50:02.558Z,21.30
2023-11-10T09:52:35.479Z,21.31
2023-11-10T09:55:07.298Z,21.30
2023-11-10T09:57:38.101Z,21.30
2023-11-10T10:00:11.092Z,21.29
2023-11-10T10:02:42.784Z,21.29
2023-11-10T10:05:14.209Z,21.28
2023-11-10T10:07:45.114Z,21.28
2023-11-10T10:10:16.639Z,21.27
2023-11-10T10:12:47.174Z,21.27
2023-11-10T10:15:20.216Z,21.26
2023-11-10T10:17:51.346Z,21.24
2023-11-10T10:20:41.966Z,21.22
2023-11-10T10:23:13.179Z,21.22
2023-11-10T10:25:43.825Z,21.22
2023-11-10T10:28:18.076Z,21.22
2023-11-10T10:30:50.546Z,21.20
2023-11-10T10:33:21.624Z,21.20
2023-11-10T10:35:52.490Z,21.20
2023-11-10T10:38:24.699Z,21.18
2023-11-10T10:40:58.526Z,21.17
2023-11-10T10:43:29.326Z,21.16
2023-11-10T10:46:02.329Z,21.14
2023-11-10T10:48:54.371Z,21.15
2023-11-10T10:51:25.428Z,21.13
2023-11-10T10:53:56.426Z,21.14
2023-11-10T10:56:38.489Z,21.19
2023-11-10T10:59:02.792Z,21.21
2023-11-10T11:01:33.864Z,21.24
2023-11-10T11:06:32.612Z,21.37
2023-11-10T11:09:24.260Z,21.34
2023-11-10T11:12:11.105Z,21.38
2023-11-10T11:14:47.276Z,21.42
2023-11-10T11:17:40.732Z,21.48
2023-11-10T11:20:12.040Z,21.54
2023-11-10T11:22:42.689Z,21.58
2023-11-10T11:25:15.284Z,21.61
2023-11-10T11:27:47.354Z,21.64
2023-11-10T11:30:20.542Z,21.68
2023-11-10T11:32:51.456Z,21.72
2023-11-10T11:35:23.512Z,21.76
2023-11-10T11:37:54.317Z,21.79
2023-11-10T11:40:24.770Z,21.83
2023-11-10T11:42:55.600Z,21.87
2023-11-10T11:45:29.105Z,21.85
2023-11-10T11:48:01.316Z,21.93
2023-11-10T11:50:34.246Z,21.97
2023-11-10T11:53:05.745Z,21.89
2023-11-10T11:55:38.363Z,22.00
2023-11-10T11:58:09.397Z,22.01
2023-11-10T12:00:40.939Z,22.00
2023-11-10T12:03:11.870Z,22.01
2023-11-10T12:05:42.982Z,22.02
2023-11-10T12:08:15.114Z,22.02
2023-11-10T12:10:48.641Z,22.03
2023-11-10T12:13:21.356Z,22.02
2023-11-10T12:15:51.704Z,22.02
2023-11-10T12:18:22.457Z,22.02
2023-11-10T12:20:53.184Z,22.03
2023-11-10T12:23:24.268Z,22.04
2023-11-10T12:25:55.686Z,22.02
2023-11-10T12:28:26.294Z,22.03
2023-11-10T12:30:57.528Z,22.02
2023-11-10T12:33:29.581Z,22.02
2023-11-10T12:36:00.906Z,22.00
2023-11-10T12:38:32.201Z,22.00
2023-11-10T12:41:04.921Z,22.00
2023-11-10T12:43:35.980Z,21.99
2023-11-10T12:46:15.467Z,21.99
2023-11-10T12:48:46.136Z,21.98
2023-11-10T12:51:17.508Z,21.98
2023-11-10T12:53:48.579Z,21.97
2023-11-10T12:58:56.437Z,21.95
2023-11-10T13:01:27.349Z,21.95
2023-11-10T13:03:58.491Z,21.95
2023-11-10T13:06:30.580Z,21.94
2023-11-10T13:09:02.224Z,21.93
2023-11-10T13:11:33.831Z,21.90
2023-11-10T13:14:07.073Z,21.90
2023-11-10T13:16:36.993Z,21.91
2023-11-10T13:19:08.440Z,21.89
2023-11-10T13:21:42.300Z,21.89
2023-11-10T13:24:13.348Z,21.88
2023-11-10T13:26:44.551Z,21.88
2023-11-10T13:29:16.436Z,21.88
2023-11-10T13:31:48.335Z,21.83
2023-11-10T13:34:20.465Z,21.86
2023-11-10T13:36:50.968Z,21.84
2023-11-10T13:39:45.071Z,21.66
2023-11-10T13:42:15.811Z,21.84
2023-11-10T13:44:46.671Z,21.83
2023-11-10T13:47:18.664Z,21.83
2023-11-10T13:49:50.100Z,21.82
2023-11-10T13:52:22.050Z,21.81
2023-11-10T13:54:52.679Z,21.79
2023-11-10T13:57:23.266Z,21.79
2023-11-10T13:59:53.721Z,21.79
2023-11-10T14:02:25.641Z,21.77
2023-11-10T14:04:56.771Z,21.77
2023-11-10T14:07:26.950Z,21.78
2023-11-10T14:09:57.521Z,21.80
2023-11-10T14:12:30.833Z,21.82
2023-11-10T14:15:00.900Z,21.85
2023-11-10T14:17:34.974Z,21.87
2023-11-10T14:20:06.847Z,21.90
2023-11-10T14:22:37.218Z,21.94
2023-11-10T14:25:09.819Z,21.97
2023-11-10T14:27:41.328Z,22.00
2023-11-10T14:30:12.507Z,22.02
2023-11-10T14:32:42.948Z,22.03
2023-11-10T14:35:13.496Z,22.05
2023-11-10T14:37:44.667Z,22.06
2023-11-10T14:40:22.088Z,22.07
2023-11-10T14:42:52.592Z,22.07
2023-11-10T14:45:24.006Z,22.07
2023-11-10T14:47:56.177Z,22.07
2023-11-10T14:50:28.237Z,22.08
2023-11-10T14:53:20.784Z,22.08
2023-11-10T14:55:51.143Z,22.07
2023-11-10T14:58:21.997Z,22.07
2023-11-10T15:01:13.004Z,22.07
2023-11-10T15:03:48.344Z,22.07
2023-11-10T15:06:38.937Z,22.07
2023-11-10T15:09:29.777Z,22.06
2023-11-10T15:12:00.509Z,22.07
2023-11-10T15:14:31.886Z,22.06
2023-11-10T15:17:04.005Z,22.06
2023-11-10T15:19:56.182Z,22.05
2023-11-10T15:22:27.199Z,22.05
2023-11-10T15:24:58.113Z,22.04
2023-11-10T15:30:10.725Z,21.93
2023-11-10T15:32:41.894Z,22.03
2023-11-10T15:35:12.616Z,22.04
2023-11-10T15:37:46.464Z,22.04
2023-11-10T15:40:16.860Z,22.04
2023-11-10T15:42:47.298Z,22.00
2023-11-10T15:45:18.619Z,22.04
2023-11-10T15:47:50.458Z,22.03
2023-11-10T15:50:22.404Z,22.02
2023-11-10T15:52:53.545Z,22.02
2023-11-10T15:55:24.350Z,22.02
2023-11-10T15:57:55.766Z,22.00
2023-11-10T16:00:27.104Z,21.97
2023-11-10T16:03:17.897Z,21.99
2023-11-10T16:05:49.871Z,22.00
2023-11-10T16:08:20.972Z,21.99
2023-11-10T16:10:52.190Z,21.99
2023-11-10T16:13:23.205Z,22.00
2023-11-10T16:15:53.820Z,21.99
2023-11-10T16:18:24.420Z,21.99
2023-11-10T16:20:55.657Z,21.99
2023-11-10T16:23:26.390Z,21.99
2023-11-10T16:25:57.803Z,21.99
2023-11-10T16:28:28.320Z,21.99
2023-11-10T16:30:59.092Z,21.97
2023-11-10T16:33:31.398Z,21.98
2023-11-10T16:36:03.541Z,21.99
2023-11-10T16:38:36.028Z,21.98
2023-11-10T16:41:09.117Z,21.97
2023-11-10T16:43:39.690Z,21.96
2023-11-10T16:46:10.644Z,21.97
2023-11-10T16:48:41.884Z,21.98
2023-11-10T16:51:13.104Z,21.98
2023-11-10T16:53:44.521Z,21.97
2023-11-10T16:56:14.902Z,21.98
2023-11-10T17:01:36.806Z,21.96
2023-11-10T17:04:09.055Z,21.98
2023-11-10T17:06:41.206Z,21.95
2023-11-10T17:09:13.343Z,21.97
2023-11-10T17:11:43.864Z,21.95
2023-11-10T17:14:15.737Z,21.95
2023-11-10T17:16:46.648Z,21.95
2023-11-10T17:19:17.602Z,21.94
2023-11-10T17:21:50.300Z,21.95
2023-11-10T17:24:21.377Z,21.94
2023-11-10T17:26:53.519Z,21.94
2023-11-10T17:29:24.172Z,21.94
2023-11-10T17:31:54.398Z,21.94
2023-11-10T17:34:25.364Z,21.94
2023-11-10T17:36:55.981Z,21.94
2023-11-10T17:39:47.744Z,21.94
2023-11-10T17:42:17.960Z,21.95
2023-11-10T17:44:49.105Z,21.95
2023-11-10T17:47:19.280Z,21.94
2023-11-10T17:49:49.907Z,21.93
2023-11-10T17:52:20.729Z,21.93
2023-11-10T17:54:51.966Z,21.95
2023-11-10T17:57:24.218Z,21.96
2023-11-10T17:59:55.937Z,21.94
2023-11-10T18:02:27.154Z,21.95
2023-11-10T18:05:00.481Z,21.95
2023-11-10T18:07:30.243Z,21.97
2023-11-10T18:10:00.881Z,21.96
2023-11-10T18:12:32.060Z,21.97
2023-11-10T18:15:02.765Z,21.97
2023-11-10T18:17:53.671Z,21.97
2023-11-10T18:20:25.039Z,21.97
2023-11-10T18:22:56.262Z,21.98
2023-11-10T18:25:28.357Z,21.99
2023-11-10T18:28:00.129Z,22.00
2023-11-10T18:30:31.794Z,21.97
2023-11-10T18:33:02.770Z,22.00
2023-11-10T18:35:34.797Z,22.01
2023-11-10T18:38:06.904Z,22.03
2023-11-10T18:40:39.934Z,22.01
2023-11-10T18:43:10.814Z,22.00
2023-11-10T18:45:42.858Z,22.02
2023-11-10T18:51:24.732Z,22.03
2023-11-10T18:53:55.391Z,22.04
2023-11-10T18:56:26.488Z,22.03
2023-11-10T18:58:58.231Z,22.04
2023-11-10T19:01:28.907Z,22.04
2023-11-10T19:04:01.401Z,22.05
2023-11-10T19:06:32.796Z,22.04
2023-11-10T19:09:03.108Z,22.05
2023-11-10T19:11:33.250Z,22.07
2023-11-10T19:14:05.155Z,22.07
2023-11-10T19:16:37.766Z,22.07
2023-11-10T19:19:10.620Z,22.08
2023-11-10T19:21:41.692Z,22.09
2023-11-10T19:24:19.895Z,22.09
2023-11-10T19:26:48.964Z,22.08
2023-11-10T19:29:19.924Z,22.11
2023-11-10T19:31:51.912Z,22.10
2023-11-10T19:34:25.753Z,22.12
2023-11-10T19:37:04.681Z,22.12
2023-11-10T19:39:36.636Z,22.14
2023-11-10T19:42:08.395Z,22.14
2023-11-10T19:44:51.304Z,22.15
2023-11-10T19:47:22.276Z,22.16
2023-11-10T19:49:55.661Z,22.18
2023-11-10T19:52:26.802Z,22.19
2023-11-10T19:54:58.369Z,22.19
2023-11-10T19:57:29.764Z,22.21
2023-11-10T20:02:35.071Z,22.23
2023-11-10T20:05:31.945Z,22.23
2023-11-10T20:08:03.647Z,22.25
2023-11-10T20:10:39.500Z,22.26
2023-11-10T20:13:13.487Z,22.26
2023-11-10T20:15:44.436Z,22.26
2023-11-10T20:18:17.015Z,22.29
2023-11-10T20:20:52.361Z,22.30
2023-11-10T20:23:24.861Z,22.31
2023-11-10T20:28:49.391Z,22.33
2023-11-10T20:31:20.215Z,22.34
2023-11-10T20:33:51.397Z,22.35
2023-11-10T20:36:22.279Z,22.37
2023-11-10T20:38:53.510Z,22.39
2023-11-10T20:41:26.547Z,22.39
2023-11-10T20:43:58.325Z,22.39
2023-11-10T20:46:28.573Z,22.42
2023-11-10T20:48:59.842Z,22.42
2023-11-10T20:51:31.336Z,22.43
2023-11-10T20:54:02.737Z,22.45
2023-11-10T20:56:37.021Z,22.47
2023-11-10T20:59:09.926Z,22.48
2023-11-10T21:01:41.391Z,22.50
2023-11-10T21:04:13.964Z,22.51
2023-11-10T21:06:46.754Z,22.53
2023-11-10T21:09:18.211Z,22.53
2023-11-10T21:11:48.960Z,22.57
2023-11-10T21:14:20.352Z,22.59
2023-11-10T21:16:50.968Z,22.59
2023-11-10T21:19:21.367Z,22.62
2023-11-10T21:21:54.427Z,22.64
2023-11-10T21:24:25.304Z,22.65
2023-11-10T21:26:56.496Z,22.66
2023-11-10T21:32:03.555Z,22.70
2023-11-10T21:34:35.296Z,22.68
2023-11-10T21:37:07.750Z,22.73
2023-11-10T21:39:38.955Z,22.74
2023-11-10T21:42:10.234Z,22.77
2023-11-10T21:44:41.485Z,22.78
2023-11-10T21:47:12.735Z,22.81
2023-11-10T21:49:43.642Z,22.84
2023-11-10T21:52:14.196Z,22.85
2023-11-10T21:54:44.769Z,22.88
2023-11-10T21:57:15.589Z,22.90
2023-11-10T21:59:46.126Z,22.92
2023-11-10T22:04:54.529Z,22.99
2023-11-10T22:07:25.347Z,22.96
2023-11-10T22:10:20.802Z,22.98
2023-11-10T22:12:51.632Z,23.00
2023-11-10T22:15:22.406Z,23.03
2023-11-10T22:17:53.352Z,23.06
2023-11-10T22:20:24.038Z,23.08
2023-11-10T22:22:55.706Z,23.09
2023-11-10T22:25:27.659Z,23.11
2023-11-10T22:30:55.576Z,23.14
2023-11-10T22:33:26.881Z,23.15
2023-11-10T22:35:59.536Z,23.17
2023-11-10T22:38:30.907Z,23.20
2023-11-10T22:41:02.136Z,23.22
2023-11-10T22:43:33.481Z,23.24
2023-11-10T22:46:04.453Z,23.26
2023-11-10T22:48:36.323Z,23.29
2023-11-10T22:51:10.052Z,23.30
2023-11-10T22:53:42.540Z,23.32
2023-11-10T22:56:14.308Z,23.30
2023-11-10T22:58:47.741Z,23.31
2023-11-10T23:01:18.694Z,23.31
2023-11-10T23:03:51.391Z,23.35
2023-11-10T23:06:22.742Z,23.37
2023-11-10T23:09:00.784Z,23.37
2023-11-10T23:11:32.564Z,23.38
2023-11-10T23:14:12.080Z,23.36
2023-11-10T23:16:43.094Z,23.38
2023-11-10T23:19:14.570Z,23.40
2023-11-10T23:21:45.490Z,23.40
2023-11-10T23:24:16.792Z,23.39
2023-11-10T23:26:49.025Z,23.41
2023-11-10T23:29:21.365Z,23.41
2023-11-10T23:31:53.005Z,23.41
2023-11-10T23:34:24.319Z,23.41
2023-11-10T23:36:55.089Z,23.43
2023-11-10T23:39:57.017Z,23.40
2023-11-10T23:42:32.877Z,23.41
2023-11-10T23:45:07.074Z,23.43
2023-11-10T23:47:38.569Z,23.42
2023-11-10T23:50:10.639Z,23.42
2023-11-10T23:52:41.592Z,23.42
2023-11-10T23:55:33.757Z,23.43
2023-11-10T23:58:04.936Z,23.42
